sensor_id;sensor_type;location;lat;lon;timestamp;P1;durP1;ratioP1;P2;durP2;ratioP2
15307;SDS011;7755;52.208;6.964;2023-04-24T00:00:02;4.57;;;4.17;;
15307;SDS011;7755;52.208;6.964;2023-04-24T00:04:08;4.50;;;4.10;;
15307;SDS011;7755;52.208;6.964;2023-04-24T00:08:12;4.97;;;4.57;;
15307;SDS011;7755;52.208;6.964;2023-04-24T00:12:15;4.47;;;4.07;;
15307;SDS011;7755;52.208;6.964;2023-04-24T00:16:18;4.50;;;4.10;;
15307;SDS011;7755;52.208;6.964;2023-04-24T00:20:22;4.50;;;4.20;;
15307;SDS011;7755;52.208;6.964;2023-04-24T00:24:26;5.07;;;4.67;;
15307;SDS011;7755;52.208;6.964;2023-04-24T00:28:29;8.00;;;5.90;;
15307;SDS011;7755;52.208;6.964;2023-04-24T00:32:32;6.70;;;6.10;;
15307;SDS011;7755;52.208;6.964;2023-04-24T00:36:36;7.00;;;6.40;;
15307;SDS011;7755;52.208;6.964;2023-04-24T00:40:40;6.87;;;6.27;;
15307;SDS011;7755;52.208;6.964;2023-04-24T00:44:43;8.07;;;6.70;;
15307;SDS011;7755;52.208;6.964;2023-04-24T00:48:47;8.00;;;7.23;;
15307;SDS011;7755;52.208;6.964;2023-04-24T00:52:51;8.40;;;7.53;;
15307;SDS011;7755;52.208;6.964;2023-04-24T00:56:54;8.63;;;7.73;;
15307;SDS011;7755;52.208;6.964;2023-04-24T01:00:58;10.93;;;8.77;;
15307;SDS011;7755;52.208;6.964;2023-04-24T01:05:03;10.37;;;9.37;;
15307;SDS011;7755;52.208;6.964;2023-04-24T01:09:08;9.90;;;8.90;;
15307;SDS011;7755;52.208;6.964;2023-04-24T01:13:13;10.00;;;9.00;;
15307;SDS011;7755;52.208;6.964;2023-04-24T01:17:18;9.90;;;8.90;;
15307;SDS011;7755;52.208;6.964;2023-04-24T01:21:21;10.03;;;8.20;;
15307;SDS011;7755;52.208;6.964;2023-04-24T01:29:42;8.87;;;8.03;;
15307;SDS011;7755;52.208;6.964;2023-04-24T01:33:45;7.27;;;6.63;;
15307;SDS011;7755;52.208;6.964;2023-04-24T01:37:50;7.17;;;6.40;;
15307;SDS011;7755;52.208;6.964;2023-04-24T01:41:54;6.43;;;5.83;;
15307;SDS011;7755;52.208;6.964;2023-04-24T01:45:57;6.07;;;5.50;;
15307;SDS011;7755;52.208;6.964;2023-04-24T01:50:00;6.47;;;5.87;;
15307;SDS011;7755;52.208;6.964;2023-04-24T01:54:03;6.03;;;5.43;;
15307;SDS011;7755;52.208;6.964;2023-04-24T01:58:08;6.10;;;5.60;;
15307;SDS011;7755;52.208;6.964;2023-04-24T02:02:11;6.80;;;6.10;;
15307;SDS011;7755;52.208;6.964;2023-04-24T02:06:14;7.23;;;6.53;;
15307;SDS011;7755;52.208;6.964;2023-04-24T02:10:17;8.87;;;8.03;;
15307;SDS011;7755;52.208;6.964;2023-04-24T02:14:21;10.40;;;9.37;;
15307;SDS011;7755;52.208;6.964;2023-04-24T02:18:24;10.10;;;9.13;;
15307;SDS011;7755;52.208;6.964;2023-04-24T02:22:41;10.23;;;9.23;;
15307;SDS011;7755;52.208;6.964;2023-04-24T02:31:20;11.40;;;10.40;;
15307;SDS011;7755;52.208;6.964;2023-04-24T02:35:23;12.57;;;11.27;;
15307;SDS011;7755;52.208;6.964;2023-04-24T02:39:26;12.63;;;11.43;;
15307;SDS011;7755;52.208;6.964;2023-04-24T02:43:28;11.80;;;10.70;;
15307;SDS011;7755;52.208;6.964;2023-04-24T02:47:33;12.53;;;10.87;;
15307;SDS011;7755;52.208;6.964;2023-04-24T02:51:36;12.20;;;10.87;;
15307;SDS011;7755;52.208;6.964;2023-04-24T02:55:42;13.33;;;10.60;;
15307;SDS011;7755;52.208;6.964;2023-04-24T02:59:44;11.93;;;10.83;;
15307;SDS011;7755;52.208;6.964;2023-04-24T03:03:48;12.50;;;10.90;;
15307;SDS011;7755;52.208;6.964;2023-04-24T03:07:52;13.97;;;11.30;;
15307;SDS011;7755;52.208;6.964;2023-04-24T03:11:55;13.87;;;11.77;;
15307;SDS011;7755;52.208;6.964;2023-04-24T03:16:00;13.37;;;11.63;;
15307;SDS011;7755;52.208;6.964;2023-04-24T03:20:04;15.87;;;12.77;;
15307;SDS011;7755;52.208;6.964;2023-04-24T03:24:11;20.70;;;14.57;;
15307;SDS011;7755;52.208;6.964;2023-04-24T03:28:14;14.77;;;13.03;;
15307;SDS011;7755;52.208;6.964;2023-04-24T03:36:49;16.40;;;13.47;;
15307;SDS011;7755;52.208;6.964;2023-04-24T03:40:52;15.53;;;13.03;;
15307;SDS011;7755;52.208;6.964;2023-04-24T03:45:12;16.03;;;12.97;;
15307;SDS011;7755;52.208;6.964;2023-04-24T03:49:19;15.07;;;13.27;;
15307;SDS011;7755;52.208;6.964;2023-04-24T03:53:25;17.47;;;14.53;;
15307;SDS011;7755;52.208;6.964;2023-04-24T03:57:29;15.47;;;13.73;;
15307;SDS011;7755;52.208;6.964;2023-04-24T04:01:43;15.57;;;13.93;;
15307;SDS011;7755;52.208;6.964;2023-04-24T04:05:49;18.87;;;15.07;;
15307;SDS011;7755;52.208;6.964;2023-04-24T04:09:54;17.60;;;15.67;;
15307;SDS011;7755;52.208;6.964;2023-04-24T04:13:57;19.40;;;17.13;;
15307;SDS011;7755;52.208;6.964;2023-04-24T04:18:01;20.73;;;16.73;;
15307;SDS011;7755;52.208;6.964;2023-04-24T04:22:04;19.73;;;16.70;;
15307;SDS011;7755;52.208;6.964;2023-04-24T04:30:49;24.37;;;17.20;;
15307;SDS011;7755;52.208;6.964;2023-04-24T04:34:57;22.63;;;18.30;;
15307;SDS011;7755;52.208;6.964;2023-04-24T04:39:07;19.97;;;16.80;;
15307;SDS011;7755;52.208;6.964;2023-04-24T04:43:35;21.27;;;18.23;;
15307;SDS011;7755;52.208;6.964;2023-04-24T04:47:53;20.60;;;18.40;;
15307;SDS011;7755;52.208;6.964;2023-04-24T04:52:12;22.77;;;18.17;;
15307;SDS011;7755;52.208;6.964;2023-04-24T04:56:30;22.80;;;17.93;;
15307;SDS011;7755;52.208;6.964;2023-04-24T05:05:04;22.30;;;17.23;;
15307;SDS011;7755;52.208;6.964;2023-04-24T05:09:08;22.00;;;18.63;;
15307;SDS011;7755;52.208;6.964;2023-04-24T05:17:54;20.27;;;18.07;;
15307;SDS011;7755;52.208;6.964;2023-04-24T05:26:13;22.57;;;17.60;;
15307;SDS011;7755;52.208;6.964;2023-04-24T05:30:16;21.37;;;18.77;;
15307;SDS011;7755;52.208;6.964;2023-04-24T05:34:21;26.80;;;19.77;;
15307;SDS011;7755;52.208;6.964;2023-04-24T05:38:28;22.23;;;18.43;;
15307;SDS011;7755;52.208;6.964;2023-04-24T05:42:30;21.57;;;18.17;;
15307;SDS011;7755;52.208;6.964;2023-04-24T05:46:33;24.03;;;19.23;;
15307;SDS011;7755;52.208;6.964;2023-04-24T05:50:38;22.37;;;19.20;;
15307;SDS011;7755;52.208;6.964;2023-04-24T05:54:41;25.17;;;18.73;;
15307;SDS011;7755;52.208;6.964;2023-04-24T05:58:47;22.57;;;18.03;;
15307;SDS011;7755;52.208;6.964;2023-04-24T06:02:51;23.70;;;18.27;;
15307;SDS011;7755;52.208;6.964;2023-04-24T06:06:56;19.93;;;16.93;;
15307;SDS011;7755;52.208;6.964;2023-04-24T06:10:59;19.97;;;17.57;;
15307;SDS011;7755;52.208;6.964;2023-04-24T06:15:09;19.87;;;16.87;;
15307;SDS011;7755;52.208;6.964;2023-04-24T06:19:30;20.07;;;18.07;;
15307;SDS011;7755;52.208;6.964;2023-04-24T06:23:51;21.50;;;16.20;;
15307;SDS011;7755;52.208;6.964;2023-04-24T06:32:15;19.23;;;17.00;;
15307;SDS011;7755;52.208;6.964;2023-04-24T06:36:18;19.50;;;15.77;;
15307;SDS011;7755;52.208;6.964;2023-04-24T06:40:22;20.40;;;16.20;;
15307;SDS011;7755;52.208;6.964;2023-04-24T06:44:25;17.70;;;15.80;;
15307;SDS011;7755;52.208;6.964;2023-04-24T06:48:28;15.33;;;13.73;;
15307;SDS011;7755;52.208;6.964;2023-04-24T06:52:31;16.03;;;14.53;;
15307;SDS011;7755;52.208;6.964;2023-04-24T06:56:35;15.17;;;12.83;;
15307;SDS011;7755;52.208;6.964;2023-04-24T07:00:38;15.03;;;13.43;;
15307;SDS011;7755;52.208;6.964;2023-04-24T07:04:41;15.80;;;13.33;;
15307;SDS011;7755;52.208;6.964;2023-04-24T07:08:44;14.90;;;12.77;;
15307;SDS011;7755;52.208;6.964;2023-04-24T07:12:49;12.47;;;11.20;;
15307;SDS011;7755;52.208;6.964;2023-04-24T07:16:51;13.63;;;11.30;;
15307;SDS011;7755;52.208;6.964;2023-04-24T07:21:00;12.47;;;11.27;;
15307;SDS011;7755;52.208;6.964;2023-04-24T07:25:04;12.33;;;11.07;;
15307;SDS011;7755;52.208;6.964;2023-04-24T07:29:08;11.07;;;9.97;;
15307;SDS011;7755;52.208;6.964;2023-04-24T07:33:12;11.57;;;10.47;;
15307;SDS011;7755;52.208;6.964;2023-04-24T07:37:15;11.53;;;10.23;;
15307;SDS011;7755;52.208;6.964;2023-04-24T07:41:18;11.07;;;9.73;;
15307;SDS011;7755;52.208;6.964;2023-04-24T07:45:23;11.63;;;9.90;;
15307;SDS011;7755;52.208;6.964;2023-04-24T07:54:01;12.10;;;9.57;;
15307;SDS011;7755;52.208;6.964;2023-04-24T07:58:23;11.77;;;10.57;;
15307;SDS011;7755;52.208;6.964;2023-04-24T08:02:27;12.40;;;10.43;;
15307;SDS011;7755;52.208;6.964;2023-04-24T08:06:31;11.47;;;10.27;;
15307;SDS011;7755;52.208;6.964;2023-04-24T08:10:34;13.07;;;10.47;;
15307;SDS011;7755;52.208;6.964;2023-04-24T08:14:36;12.73;;;11.53;;
15307;SDS011;7755;52.208;6.964;2023-04-24T08:18:41;10.10;;;9.03;;
15307;SDS011;7755;52.208;6.964;2023-04-24T08:22:43;11.80;;;9.63;;
15307;SDS011;7755;52.208;6.964;2023-04-24T08:26:48;10.23;;;9.13;;
15307;SDS011;7755;52.208;6.964;2023-04-24T08:30:54;9.03;;;8.13;;
15307;SDS011;7755;52.208;6.964;2023-04-24T08:34:58;10.87;;;9.53;;
15307;SDS011;7755;52.208;6.964;2023-04-24T08:39:01;9.93;;;8.20;;
15307;SDS011;7755;52.208;6.964;2023-04-24T08:43:04;10.60;;;7.57;;
15307;SDS011;7755;52.208;6.964;2023-04-24T08:47:07;9.87;;;8.30;;
15307;SDS011;7755;52.208;6.964;2023-04-24T08:51:12;8.70;;;7.80;;
15307;SDS011;7755;52.208;6.964;2023-04-24T08:55:14;10.10;;;8.40;;
15307;SDS011;7755;52.208;6.964;2023-04-24T08:59:19;7.87;;;7.07;;
15307;SDS011;7755;52.208;6.964;2023-04-24T09:03:24;7.27;;;6.57;;
15307;SDS011;7755;52.208;6.964;2023-04-24T09:07:31;10.53;;;9.43;;
15307;SDS011;7755;52.208;6.964;2023-04-24T09:11:38;8.10;;;7.23;;
15307;SDS011;7755;52.208;6.964;2023-04-24T09:15:41;8.30;;;7.00;;
15307;SDS011;7755;52.208;6.964;2023-04-24T09:19:43;7.87;;;7.07;;
15307;SDS011;7755;52.208;6.964;2023-04-24T09:23:48;6.40;;;5.80;;
15307;SDS011;7755;52.208;6.964;2023-04-24T09:28:01;6.80;;;5.53;;
15307;SDS011;7755;52.208;6.964;2023-04-24T09:32:17;5.20;;;4.70;;
15307;SDS011;7755;52.208;6.964;2023-04-24T09:36:30;3.03;;;2.83;;
15307;SDS011;7755;52.208;6.964;2023-04-24T09:40:36;3.57;;;3.27;;
15307;SDS011;7755;52.208;6.964;2023-04-24T09:44:42;7.47;;;5.70;;
15307;SDS011;7755;52.208;6.964;2023-04-24T09:48:45;9.20;;;8.07;;
15307;SDS011;7755;52.208;6.964;2023-04-24T09:52:55;8.80;;;7.90;;
15307;SDS011;7755;52.208;6.964;2023-04-24T09:57:01;9.30;;;7.53;;
15307;SDS011;7755;52.208;6.964;2023-04-24T10:01:04;11.30;;;9.33;;
15307;SDS011;7755;52.208;6.964;2023-04-24T10:05:08;11.83;;;9.80;;
15307;SDS011;7755;52.208;6.964;2023-04-24T10:09:13;13.57;;;10.83;;
15307;SDS011;7755;52.208;6.964;2023-04-24T10:13:18;15.73;;;11.67;;
15307;SDS011;7755;52.208;6.964;2023-04-24T10:17:21;16.07;;;12.63;;
15307;SDS011;7755;52.208;6.964;2023-04-24T10:21:25;14.33;;;11.67;;
15307;SDS011;7755;52.208;6.964;2023-04-24T10:25:29;14.93;;;11.60;;
15307;SDS011;7755;52.208;6.964;2023-04-24T10:29:35;17.23;;;11.03;;
15307;SDS011;7755;52.208;6.964;2023-04-24T10:33:38;15.60;;;11.93;;
15307;SDS011;7755;52.208;6.964;2023-04-24T10:37:45;14.97;;;9.73;;
15307;SDS011;7755;52.208;6.964;2023-04-24T10:41:50;12.30;;;10.57;;
15307;SDS011;7755;52.208;6.964;2023-04-24T10:46:01;16.57;;;11.30;;
15307;SDS011;7755;52.208;6.964;2023-04-24T10:50:07;13.47;;;11.30;;
15307;SDS011;7755;52.208;6.964;2023-04-24T10:54:21;16.50;;;12.13;;
15307;SDS011;7755;52.208;6.964;2023-04-24T10:58:35;13.77;;;9.70;;
15307;SDS011;7755;52.208;6.964;2023-04-24T11:02:41;8.37;;;7.23;;
15307;SDS011;7755;52.208;6.964;2023-04-24T11:06:50;8.07;;;6.37;;
15307;SDS011;7755;52.208;6.964;2023-04-24T11:10:56;8.13;;;5.63;;
15307;SDS011;7755;52.208;6.964;2023-04-24T11:15:01;9.93;;;6.10;;
15307;SDS011;7755;52.208;6.964;2023-04-24T11:19:06;8.67;;;6.30;;
15307;SDS011;7755;52.208;6.964;2023-04-24T11:23:11;7.87;;;5.70;;
15307;SDS011;7755;52.208;6.964;2023-04-24T11:27:15;11.30;;;5.87;;
15307;SDS011;7755;52.208;6.964;2023-04-24T11:31:40;10.97;;;6.37;;
15307;SDS011;7755;52.208;6.964;2023-04-24T11:35:44;8.27;;;5.77;;
15307;SDS011;7755;52.208;6.964;2023-04-24T11:39:49;11.50;;;5.90;;
15307;SDS011;7755;52.208;6.964;2023-04-24T11:43:53;12.43;;;6.10;;
15307;SDS011;7755;52.208;6.964;2023-04-24T11:47:59;12.63;;;5.83;;
15307;SDS011;7755;52.208;6.964;2023-04-24T11:52:03;9.77;;;6.23;;
15307;SDS011;7755;52.208;6.964;2023-04-24T11:56:08;12.87;;;6.30;;
15307;SDS011;7755;52.208;6.964;2023-04-24T12:00:15;10.93;;;5.70;;
15307;SDS011;7755;52.208;6.964;2023-04-24T12:04:20;6.60;;;5.00;;
15307;SDS011;7755;52.208;6.964;2023-04-24T12:08:28;5.83;;;4.57;;
15307;SDS011;7755;52.208;6.964;2023-04-24T12:12:32;8.97;;;4.83;;
15307;SDS011;7755;52.208;6.964;2023-04-24T12:16:35;6.97;;;4.70;;
15307;SDS011;7755;52.208;6.964;2023-04-24T12:20:40;4.63;;;4.10;;
15307;SDS011;7755;52.208;6.964;2023-04-24T12:25:00;6.80;;;4.20;;
15307;SDS011;7755;52.208;6.964;2023-04-24T12:29:04;7.27;;;4.67;;
15307;SDS011;7755;52.208;6.964;2023-04-24T12:33:07;4.27;;;3.87;;
15307;SDS011;7755;52.208;6.964;2023-04-24T12:37:11;4.47;;;4.07;;
15307;SDS011;7755;52.208;6.964;2023-04-24T12:41:15;6.93;;;4.70;;
15307;SDS011;7755;52.208;6.964;2023-04-24T12:45:21;7.07;;;4.53;;
15307;SDS011;7755;52.208;6.964;2023-04-24T12:49:27;5.43;;;4.60;;
15307;SDS011;7755;52.208;6.964;2023-04-24T12:53:33;7.00;;;4.93;;
15307;SDS011;7755;52.208;6.964;2023-04-24T12:57:38;8.03;;;5.30;;
15307;SDS011;7755;52.208;6.964;2023-04-24T13:01:41;9.37;;;5.23;;
15307;SDS011;7755;52.208;6.964;2023-04-24T13:05:45;9.27;;;5.60;;
15307;SDS011;7755;52.208;6.964;2023-04-24T13:10:03;9.13;;;5.77;;
15307;SDS011;7755;52.208;6.964;2023-04-24T13:14:08;10.40;;;5.93;;
15307;SDS011;7755;52.208;6.964;2023-04-24T13:18:23;6.40;;;4.83;;
15307;SDS011;7755;52.208;6.964;2023-04-24T13:31:26;5.00;;;3.10;;
15307;SDS011;7755;52.208;6.964;2023-04-24T13:35:29;4.50;;;3.73;;
15307;SDS011;7755;52.208;6.964;2023-04-24T13:39:32;3.77;;;3.40;;
15307;SDS011;7755;52.208;6.964;2023-04-24T13:43:36;4.63;;;3.50;;
15307;SDS011;7755;52.208;6.964;2023-04-24T13:47:40;3.23;;;2.90;;
15307;SDS011;7755;52.208;6.964;2023-04-24T13:51:43;4.13;;;3.77;;
15307;SDS011;7755;52.208;6.964;2023-04-24T13:55:47;2.53;;;2.33;;
15307;SDS011;7755;52.208;6.964;2023-04-24T13:59:50;4.67;;;3.20;;
15307;SDS011;7755;52.208;6.964;2023-04-24T14:03:54;2.00;;;1.90;;
15307;SDS011;7755;52.208;6.964;2023-04-24T14:07:59;2.30;;;2.10;;
15307;SDS011;7755;52.208;6.964;2023-04-24T14:12:02;1.67;;;1.43;;
15307;SDS011;7755;52.208;6.964;2023-04-24T14:16:07;2.40;;;2.20;;
15307;SDS011;7755;52.208;6.964;2023-04-24T14:20:13;2.10;;;1.93;;
15307;SDS011;7755;52.208;6.964;2023-04-24T14:24:15;2.47;;;1.73;;
15307;SDS011;7755;52.208;6.964;2023-04-24T14:28:18;2.30;;;2.20;;
15307;SDS011;7755;52.208;6.964;2023-04-24T14:32:25;2.50;;;2.30;;
15307;SDS011;7755;52.208;6.964;2023-04-24T14:36:29;1.97;;;1.87;;
15307;SDS011;7755;52.208;6.964;2023-04-24T14:40:33;2.37;;;2.20;;
15307;SDS011;7755;52.208;6.964;2023-04-24T14:44:56;2.27;;;2.07;;
15307;SDS011;7755;52.208;6.964;2023-04-24T14:48:58;4.37;;;2.50;;
15307;SDS011;7755;52.208;6.964;2023-04-24T14:53:03;3.03;;;2.83;;
15307;SDS011;7755;52.208;6.964;2023-04-24T14:57:07;6.63;;;3.83;;
15307;SDS011;7755;52.208;6.964;2023-04-24T15:01:10;4.43;;;3.10;;
15307;SDS011;7755;52.208;6.964;2023-04-24T15:05:13;4.00;;;2.90;;
15307;SDS011;7755;52.208;6.964;2023-04-24T15:09:20;3.93;;;2.87;;
15307;SDS011;7755;52.208;6.964;2023-04-24T15:13:25;3.90;;;3.40;;
15307;SDS011;7755;52.208;6.964;2023-04-24T15:17:28;5.33;;;3.67;;
15307;SDS011;7755;52.208;6.964;2023-04-24T15:21:31;7.83;;;3.80;;
15307;SDS011;7755;52.208;6.964;2023-04-24T15:25:35;5.87;;;3.83;;
15307;SDS011;7755;52.208;6.964;2023-04-24T15:29:39;5.77;;;3.47;;
15307;SDS011;7755;52.208;6.964;2023-04-24T15:33:42;7.20;;;4.43;;
15307;SDS011;7755;52.208;6.964;2023-04-24T15:37:46;8.20;;;4.13;;
15307;SDS011;7755;52.208;6.964;2023-04-24T15:41:50;7.60;;;4.43;;
15307;SDS011;7755;52.208;6.964;2023-04-24T15:45:54;5.33;;;3.90;;
15307;SDS011;7755;52.208;6.964;2023-04-24T15:49:57;6.40;;;3.90;;
15307;SDS011;7755;52.208;6.964;2023-04-24T15:54:01;6.13;;;4.07;;
15307;SDS011;7755;52.208;6.964;2023-04-24T15:58:05;6.50;;;3.83;;
15307;SDS011;7755;52.208;6.964;2023-04-24T16:02:10;6.30;;;3.50;;
15307;SDS011;7755;52.208;6.964;2023-04-24T16:06:19;4.07;;;3.03;;
15307;SDS011;7755;52.208;6.964;2023-04-24T16:10:24;5.30;;;3.63;;
15307;SDS011;7755;52.208;6.964;2023-04-24T16:14:29;6.93;;;3.17;;
15307;SDS011;7755;52.208;6.964;2023-04-24T16:18:33;7.37;;;3.40;;
15307;SDS011;7755;52.208;6.964;2023-04-24T16:22:37;4.67;;;2.93;;
15307;SDS011;7755;52.208;6.964;2023-04-24T16:26:41;4.70;;;3.10;;
15307;SDS011;7755;52.208;6.964;2023-04-24T16:30:45;6.10;;;3.53;;
15307;SDS011;7755;52.208;6.964;2023-04-24T16:34:48;5.80;;;3.40;;
15307;SDS011;7755;52.208;6.964;2023-04-24T16:38:52;7.80;;;3.97;;
15307;SDS011;7755;52.208;6.964;2023-04-24T16:42:55;5.27;;;3.20;;
15307;SDS011;7755;52.208;6.964;2023-04-24T16:47:00;4.27;;;3.00;;
15307;SDS011;7755;52.208;6.964;2023-04-24T16:51:04;6.50;;;3.10;;
15307;SDS011;7755;52.208;6.964;2023-04-24T16:55:08;5.73;;;3.63;;
15307;SDS011;7755;52.208;6.964;2023-04-24T16:59:11;6.10;;;3.30;;
15307;SDS011;7755;52.208;6.964;2023-04-24T17:03:24;5.37;;;3.63;;
15307;SDS011;7755;52.208;6.964;2023-04-24T17:07:27;5.60;;;3.97;;
15307;SDS011;7755;52.208;6.964;2023-04-24T17:11:46;6.07;;;3.50;;
15307;SDS011;7755;52.208;6.964;2023-04-24T17:15:49;6.23;;;4.20;;
15307;SDS011;7755;52.208;6.964;2023-04-24T17:19:53;6.10;;;4.50;;
15307;SDS011;7755;52.208;6.964;2023-04-24T17:23:59;6.23;;;4.40;;
15307;SDS011;7755;52.208;6.964;2023-04-24T17:32:35;7.63;;;4.60;;
15307;SDS011;7755;52.208;6.964;2023-04-24T17:36:55;8.33;;;4.57;;
15307;SDS011;7755;52.208;6.964;2023-04-24T17:41:11;5.37;;;4.17;;
15307;SDS011;7755;52.208;6.964;2023-04-24T17:45:29;7.27;;;4.30;;
15307;SDS011;7755;52.208;6.964;2023-04-24T17:49:45;8.03;;;4.17;;
15307;SDS011;7755;52.208;6.964;2023-04-24T17:54:01;7.77;;;4.20;;
15307;SDS011;7755;52.208;6.964;2023-04-24T17:58:17;8.07;;;4.67;;
15307;SDS011;7755;52.208;6.964;2023-04-24T18:02:21;9.07;;;4.47;;
15307;SDS011;7755;52.208;6.964;2023-04-24T18:06:28;6.27;;;4.53;;
15307;SDS011;7755;52.208;6.964;2023-04-24T18:10:38;9.67;;;5.30;;
15307;SDS011;7755;52.208;6.964;2023-04-24T18:14:47;8.53;;;5.23;;
15307;SDS011;7755;52.208;6.964;2023-04-24T18:19:10;11.57;;;5.80;;
15307;SDS011;7755;52.208;6.964;2023-04-24T18:23:22;8.73;;;4.77;;
15307;SDS011;7755;52.208;6.964;2023-04-24T18:27:30;6.47;;;4.10;;
15307;SDS011;7755;52.208;6.964;2023-04-24T18:31:39;6.60;;;4.63;;
15307;SDS011;7755;52.208;6.964;2023-04-24T18:35:55;5.90;;;4.53;;
15307;SDS011;7755;52.208;6.964;2023-04-24T18:40:12;7.90;;;4.27;;
15307;SDS011;7755;52.208;6.964;2023-04-24T18:48:59;7.30;;;4.20;;
15307;SDS011;7755;52.208;6.964;2023-04-24T18:57:25;9.20;;;4.33;;
15307;SDS011;7755;52.208;6.964;2023-04-24T19:01:31;5.83;;;4.37;;
15307;SDS011;7755;52.208;6.964;2023-04-24T19:05:36;8.70;;;5.20;;
15307;SDS011;7755;52.208;6.964;2023-04-24T19:09:40;8.13;;;5.17;;
15307;SDS011;7755;52.208;6.964;2023-04-24T19:13:52;7.40;;;4.83;;
15307;SDS011;7755;52.208;6.964;2023-04-24T19:17:57;10.17;;;4.33;;
15307;SDS011;7755;52.208;6.964;2023-04-24T19:22:03;8.63;;;5.83;;
15307;SDS011;7755;52.208;6.964;2023-04-24T19:26:09;5.60;;;3.93;;
15307;SDS011;7755;52.208;6.964;2023-04-24T19:30:14;11.67;;;5.43;;
15307;SDS011;7755;52.208;6.964;2023-04-24T19:34:19;7.23;;;4.33;;
15307;SDS011;7755;52.208;6.964;2023-04-24T19:38:24;11.17;;;5.90;;
15307;SDS011;7755;52.208;6.964;2023-04-24T19:42:32;8.83;;;6.10;;
15307;SDS011;7755;52.208;6.964;2023-04-24T19:46:45;11.87;;;6.20;;
15307;SDS011;7755;52.208;6.964;2023-04-24T19:50:50;9.47;;;5.83;;
15307;SDS011;7755;52.208;6.964;2023-04-24T19:54:52;12.40;;;6.70;;
15307;SDS011;7755;52.208;6.964;2023-04-24T19:58:57;13.90;;;6.33;;
15307;SDS011;7755;52.208;6.964;2023-04-24T20:03:01;7.83;;;5.27;;
15307;SDS011;7755;52.208;6.964;2023-04-24T20:15:38;8.27;;;6.03;;
15307;SDS011;7755;52.208;6.964;2023-04-24T20:19:42;11.87;;;6.17;;
15307;SDS011;7755;52.208;6.964;2023-04-24T20:23:47;11.50;;;6.80;;
15307;SDS011;7755;52.208;6.964;2023-04-24T20:27:51;13.60;;;7.33;;
15307;SDS011;7755;52.208;6.964;2023-04-24T20:31:54;11.77;;;6.33;;
15307;SDS011;7755;52.208;6.964;2023-04-24T20:35:59;12.53;;;6.37;;
15307;SDS011;7755;52.208;6.964;2023-04-24T20:40:04;14.10;;;6.13;;
15307;SDS011;7755;52.208;6.964;2023-04-24T20:44:08;10.37;;;6.27;;
15307;SDS011;7755;52.208;6.964;2023-04-24T20:48:13;10.93;;;5.90;;
15307;SDS011;7755;52.208;6.964;2023-04-24T20:52:16;10.87;;;6.03;;
15307;SDS011;7755;52.208;6.964;2023-04-24T20:56:20;15.13;;;6.57;;
15307;SDS011;7755;52.208;6.964;2023-04-24T21:00:25;13.27;;;6.00;;
15307;SDS011;7755;52.208;6.964;2023-04-24T21:04:28;10.67;;;6.90;;
15307;SDS011;7755;52.208;6.964;2023-04-24T21:08:32;9.97;;;5.60;;
15307;SDS011;7755;52.208;6.964;2023-04-24T21:12:38;10.17;;;5.67;;
15307;SDS011;7755;52.208;6.964;2023-04-24T21:16:41;12.53;;;6.03;;
15307;SDS011;7755;52.208;6.964;2023-04-24T21:20:44;16.23;;;6.43;;
15307;SDS011;7755;52.208;6.964;2023-04-24T21:24:49;11.90;;;6.10;;
15307;SDS011;7755;52.208;6.964;2023-04-24T21:28:55;10.70;;;5.47;;
15307;SDS011;7755;52.208;6.964;2023-04-24T21:32:58;9.00;;;5.50;;
15307;SDS011;7755;52.208;6.964;2023-04-24T21:37:01;12.47;;;6.53;;
15307;SDS011;7755;52.208;6.964;2023-04-24T21:41:05;11.23;;;6.07;;
15307;SDS011;7755;52.208;6.964;2023-04-24T21:45:10;11.50;;;6.10;;
15307;SDS011;7755;52.208;6.964;2023-04-24T21:49:13;12.67;;;6.10;;
15307;SDS011;7755;52.208;6.964;2023-04-24T21:53:16;15.27;;;6.87;;
15307;SDS011;7755;52.208;6.964;2023-04-24T21:57:20;13.07;;;5.93;;
15307;SDS011;7755;52.208;6.964;2023-04-24T22:01:24;14.13;;;6.93;;
15307;SDS011;7755;52.208;6.964;2023-04-24T22:05:27;11.70;;;5.53;;
15307;SDS011;7755;52.208;6.964;2023-04-24T22:09:32;10.87;;;5.93;;
15307;SDS011;7755;52.208;6.964;2023-04-24T22:13:35;11.67;;;6.33;;
15307;SDS011;7755;52.208;6.964;2023-04-24T22:17:39;10.57;;;6.70;;
15307;SDS011;7755;52.208;6.964;2023-04-24T22:21:42;11.90;;;6.40;;
15307;SDS011;7755;52.208;6.964;2023-04-24T22:25:45;9.23;;;6.17;;
15307;SDS011;7755;52.208;6.964;2023-04-24T22:29:48;12.87;;;6.33;;
15307;SDS011;7755;52.208;6.964;2023-04-24T22:33:52;12.33;;;5.80;;
15307;SDS011;7755;52.208;6.964;2023-04-24T22:37:55;10.83;;;6.10;;
15307;SDS011;7755;52.208;6.964;2023-04-24T22:41:59;13.97;;;6.83;;
15307;SDS011;7755;52.208;6.964;2023-04-24T22:46:02;7.53;;;5.80;;
15307;SDS011;7755;52.208;6.964;2023-04-24T22:50:07;9.80;;;5.63;;
15307;SDS011;7755;52.208;6.964;2023-04-24T22:54:11;13.30;;;5.80;;
15307;SDS011;7755;52.208;6.964;2023-04-24T22:58:14;10.70;;;5.50;;
15307;SDS011;7755;52.208;6.964;2023-04-24T23:02:17;13.57;;;5.70;;
15307;SDS011;7755;52.208;6.964;2023-04-24T23:11:56;7.20;;;4.87;;
15307;SDS011;7755;52.208;6.964;2023-04-24T23:15:58;10.13;;;5.70;;
15307;SDS011;7755;52.208;6.964;2023-04-24T23:20:01;7.83;;;4.53;;
15307;SDS011;7755;52.208;6.964;2023-04-24T23:24:06;8.00;;;5.10;;
15307;SDS011;7755;52.208;6.964;2023-04-24T23:28:10;8.77;;;5.57;;
15307;SDS011;7755;52.208;6.964;2023-04-24T23:32:13;8.60;;;5.33;;
15307;SDS011;7755;52.208;6.964;2023-04-24T23:36:15;8.67;;;5.43;;
15307;SDS011;7755;52.208;6.964;2023-04-24T23:44:53;10.07;;;5.73;;
15307;SDS011;7755;52.208;6.964;2023-04-24T23:48:56;14.30;;;6.53;;
15307;SDS011;7755;52.208;6.964;2023-04-24T23:52:59;13.20;;;6.47;;
15307;SDS011;7755;52.208;6.964;2023-04-24T23:57:02;8.57;;;5.47;;
